Time;durP1;ratioP1;P1;durP2;ratioP2;P2;SDS_P1;SDS_P2;PMS_P1;PMS_P2;Temp;Humidity;BMP_temperature;BMP_pressure;BME280_temperature;BME280_humidity;BME280_pressure;Samples;Min_cycle;Max_cycle;Signal;HPM_P1;HPM_P2
2023/09/17 00:01:25;;;;;;;7.60;4.63;;;;;;;18.57;79.16;101302.38;5000790;28;20046;-78
2023/09/17 00:03:53;;;;;;;7.40;4.90;;;;;;;18.31;81.18;101302.06;4995634;28;20573;-80
2023/09/17 00:06:21;;;;;;;7.82;5.43;;;;;;;18.06;83.74;101295.41;5001658;28;20626;-77
2023/09/17 00:08:48;;;;;;;6.75;5.38;;;;;;;17.72;85.12;101283.00;4995106;28;20097;-79
2023/09/17 00:11:15;;;;;;;8.05;5.70;;;;;;;17.35;87.51;101280.47;5004146;28;20817;-85
2023/09/17 00:13:42;;;;;;;10.32;6.38;;;;;;;17.07;89.89;101288.06;5020288;28;20053;-84
2023/09/17 00:16:10;;;;;;;8.30;6.30;;;;;;;16.88;92.00;101281.91;5005407;28;20042;-78
2023/09/17 00:18:38;;;;;;;8.23;6.55;;;;;;;16.67;93.65;101273.19;5008954;28;20620;-78
2023/09/17 00:21:06;;;;;;;9.18;6.72;;;;;;;16.50;95.43;101260.72;5006452;28;20042;-78
2023/09/17 00:23:34;;;;;;;8.70;6.75;;;;;;;16.38;97.12;101259.50;5006171;28;20399;-77
2023/09/17 00:26:01;;;;;;;9.45;7.30;;;;;;;16.21;98.62;101250.53;5008253;28;20076;-77
2023/09/17 00:28:28;;;;;;;10.43;7.70;;;;;;;16.08;99.45;101239.59;5009213;28;20052;-76
2023/09/17 00:30:55;;;;;;;9.15;7.95;;;;;;;15.99;100.00;101237.38;5007060;28;20132;-77
2023/09/17 00:33:23;;;;;;;9.10;7.82;;;;;;;15.93;100.00;101219.91;5007251;28;20065;-78
2023/09/17 00:35:52;;;;;;;10.00;8.35;;;;;;;15.89;100.00;101205.03;5007048;28;20702;-78
2023/09/17 00:38:20;;;;;;;10.52;8.90;;;;;;;15.77;100.00;101213.56;5016275;28;20049;-76
2023/09/17 00:40:49;;;;;;;11.65;9.10;;;;;;;15.67;100.00;101203.34;5005400;28;20109;-76
2023/09/17 00:43:18;;;;;;;12.82;9.77;;;;;;;15.58;100.00;101200.25;5022502;28;20041;-75
2023/09/17 00:45:46;;;;;;;13.95;9.35;;;;;;;15.52;100.00;101196.09;5022253;28;20057;-76
2023/09/17 00:48:13;;;;;;;12.45;9.98;;;;;;;15.43;100.00;101192.03;5009088;28;20510;-76
2023/09/17 00:50:40;;;;;;;13.00;9.63;;;;;;;15.38;100.00;101189.59;4989784;28;20041;-75
2023/09/17 00:53:09;;;;;;;12.07;9.70;;;;;;;15.36;100.00;101178.16;5006392;28;20049;-75
2023/09/17 00:55:38;;;;;;;12.10;9.93;;;;;;;15.32;100.00;101173.06;5008063;28;20050;-76
2023/09/17 00:58:06;;;;;;;14.80;10.20;;;;;;;15.30;100.00;101181.09;5007508;28;20088;-76
2023/09/17 01:00:36;;;;;;;14.88;12.18;;;;;;;15.29;100.00;101173.22;5005606;28;20044;-76
2023/09/17 01:03:07;;;;;;;15.30;11.40;;;;;;;15.28;100.00;101163.53;5006258;28;20549;-76
2023/09/17 01:05:41;;;;;;;14.27;11.32;;;;;;;15.26;100.00;101165.38;5015405;28;20037;-75
2023/09/17 01:08:10;;;;;;;13.88;11.65;;;;;;;15.24;100.00;101164.59;5005395;28;20125;-74
2023/09/17 01:10:40;;;;;;;16.83;12.60;;;;;;;15.26;100.00;101165.38;5005604;28;20122;-76
2023/09/17 01:13:09;;;;;;;14.25;11.85;;;;;;;15.28;100.00;101155.56;5006465;28;20585;-76
2023/09/17 01:15:37;;;;;;;16.02;12.35;;;;;;;15.28;100.00;101159.06;5006451;28;20076;-75
2023/09/17 01:18:09;;;;;;;13.30;11.15;;;;;;;15.31;100.00;101147.47;5002385;28;20544;-75
2023/09/17 01:20:47;;;;;;;17.60;11.98;;;;;;;15.29;100.00;101134.22;5006568;28;20291;-75
2023/09/17 01:23:36;;;;;;;14.23;12.15;;;;;;;15.33;100.00;101137.59;5006483;28;20045;-74
2023/09/17 01:26:24;;;;;;;14.48;12.80;;;;;;;15.39;100.00;101145.31;5002639;28;20133;-74
2023/09/17 01:28:56;;;;;;;16.20;13.25;;;;;;;15.49;100.00;101140.41;4981386;28;20038;-75
2023/09/17 01:31:24;;;;;;;17.42;13.63;;;;;;;15.62;100.00;101140.69;5004095;28;20089;-74
2023/09/17 01:33:53;;;;;;;15.38;12.88;;;;;;;15.66;100.00;101151.16;5003687;28;20043;-75
2023/09/17 01:36:33;;;;;;;17.63;13.90;;;;;;;15.77;100.00;101160.41;5007024;28;20768;-75
2023/09/17 01:39:10;;;;;;;15.25;12.98;;;;;;;15.86;100.00;101183.06;5008241;28;20494;-75
2023/09/17 01:41:41;;;;;;;16.85;12.93;;;;;;;15.98;100.00;101180.66;4999950;28;20049;-75
2023/09/17 01:44:09;;;;;;;20.67;13.75;;;;;;;16.06;100.00;101180.31;5005036;28;20119;-75
2023/09/17 01:46:41;;;;;;;15.38;13.52;;;;;;;16.04;100.00;101171.53;5007256;28;20041;-75
2023/09/17 01:49:11;;;;;;;19.25;14.82;;;;;;;15.98;100.00;101175.34;5007698;28;20062;-74
2023/09/17 01:51:40;;;;;;;17.05;14.63;;;;;;;15.96;100.00;101187.00;5005420;28;20096;-75
2023/09/17 01:54:08;;;;;;;20.65;15.85;;;;;;;15.98;100.00;101198.44;4975089;28;20664;-75
2023/09/17 01:56:37;;;;;;;20.20;16.02;;;;;;;15.99;100.00;101182.41;4990653;28;20685;-75
2023/09/17 01:59:07;;;;;;;22.20;15.75;;;;;;;15.99;100.00;101189.53;4979275;28;20047;-75
2023/09/17 02:01:34;;;;;;;19.17;15.05;;;;;;;15.99;100.00;101182.41;5000601;28;20506;-74
2023/09/17 02:04:01;;;;;;;17.40;14.95;;;;;;;15.98;100.00;101172.69;5004119;28;20646;-75
2023/09/17 02:06:28;;;;;;;16.75;14.18;;;;;;;15.98;100.00;101171.84;5004291;28;20050;-75
2023/09/17 02:08:57;;;;;;;18.92;14.82;;;;;;;15.96;100.00;101166.63;5002847;28;20077;-74
2023/09/17 02:11:24;;;;;;;19.00;15.15;;;;;;;15.99;100.00;101171.75;5020445;28;20050;-75
2023/09/17 02:13:51;;;;;;;17.52;14.48;;;;;;;16.01;100.00;101161.06;5005575;28;20050;-74
2023/09/17 02:16:20;;;;;;;18.40;15.00;;;;;;;16.01;100.00;101162.84;5005894;28;20128;-74
2023/09/17 02:18:48;;;;;;;20.05;16.02;;;;;;;15.97;100.00;101162.13;5003438;28;20506;-73
2023/09/17 02:21:15;;;;;;;24.35;17.08;;;;;;;15.93;100.00;101164.09;5003769;28;20045;-73
2023/09/17 02:23:44;;;;;;;18.35;16.05;;;;;;;15.94;100.00;101163.16;5008782;28;20050;-73
2023/09/17 02:26:11;;;;;;;18.20;15.35;;;;;;;16.01;100.00;101169.06;5016537;28;20046;-74
2023/09/17 02:28:38;;;;;;;18.25;14.88;;;;;;;15.99;100.00;101154.97;5006047;28;20538;-74
2023/09/17 02:31:06;;;;;;;19.05;16.23;;;;;;;15.95;100.00;101148.06;5004768;28;20041;-73
2023/09/17 02:33:34;;;;;;;18.45;15.57;;;;;;;15.95;100.00;101154.25;5003062;28;20061;-74
2023/09/17 02:36:03;;;;;;;19.33;17.10;;;;;;;15.95;100.00;101153.38;5004286;28;20048;-73
2023/09/17 02:38:30;;;;;;;17.90;15.02;;;;;;;15.98;100.00;101145.25;4999858;28;20646;-76
2023/09/17 02:40:57;;;;;;;18.58;15.10;;;;;;;15.99;100.00;101152.31;5036502;28;20048;-75
2023/09/17 02:43:24;;;;;;;18.50;15.88;;;;;;;15.96;100.00;101144.47;5005591;28;21816;-75
2023/09/17 02:45:54;;;;;;;20.80;16.77;;;;;;;15.95;100.00;101140.97;5005653;28;20045;-75
2023/09/17 02:48:21;;;;;;;19.05;15.75;;;;;;;15.97;100.00;101136.41;5003535;28;20085;-75
2023/09/17 02:50:48;;;;;;;19.33;16.45;;;;;;;15.99;100.00;101137.19;5002707;28;20422;-75
2023/09/17 02:53:15;;;;;;;21.33;17.30;;;;;;;16.01;100.00;101133.59;5003782;28;20542;-75
2023/09/17 02:55:45;;;;;;;19.75;16.98;;;;;;;16.01;100.00;101137.13;5001653;28;20509;-75
2023/09/17 02:58:12;;;;;;;20.92;17.23;;;;;;;16.01;100.00;101134.47;5001849;28;20149;-75
2023/09/17 03:00:42;;;;;;;20.77;18.00;;;;;;;16.03;100.00;101140.56;5003665;28;20517;-76
2023/09/17 03:03:10;;;;;;;19.13;15.68;;;;;;;15.98;100.00;101137.28;4997723;28;20616;-78
2023/09/17 03:05:38;;;;;;;22.75;17.77;;;;;;;15.96;100.00;101136.47;4999374;28;20053;-76
2023/09/17 03:08:08;;;;;;;25.42;20.55;;;;;;;15.95;100.00;101137.41;5004179;28;20068;-77
2023/09/17 03:10:42;;;;;;;22.23;18.38;;;;;;;15.93;100.00;101133.97;5002829;28;20037;-75
2023/09/17 03:13:12;;;;;;;25.50;20.13;;;;;;;15.89;100.00;101119.13;5005740;28;20129;-75
2023/09/17 03:15:40;;;;;;;27.30;19.23;;;;;;;15.88;100.00;101122.72;4987974;28;20051;-75
2023/09/17 03:18:07;;;;;;;26.23;20.85;;;;;;;15.81;100.00;101108.81;5022151;28;20061;-74
2023/09/17 03:20:34;;;;;;;25.30;19.45;;;;;;;15.80;100.00;101107.09;5004069;28;20134;-75
2023/09/17 03:23:04;;;;;;;25.45;19.52;;;;;;;15.80;100.00;101115.06;5003846;28;20038;-75
2023/09/17 03:25:34;;;;;;;26.35;20.90;;;;;;;15.77;100.00;101107.25;5003610;28;20537;-75
2023/09/17 03:28:01;;;;;;;29.17;20.92;;;;;;;15.78;100.00;101112.50;5004261;28;20056;-75
2023/09/17 03:30:28;;;;;;;28.67;21.15;;;;;;;15.78;100.00;101112.50;5003314;28;20034;-76
2023/09/17 03:32:58;;;;;;;30.00;23.33;;;;;;;15.76;100.00;101106.38;5001754;28;20179;-75
2023/09/17 03:35:40;;;;;;;28.75;22.20;;;;;;;15.77;100.00;101112.56;5001029;28;20042;-75
2023/09/17 03:38:07;;;;;;;32.58;23.23;;;;;;;15.78;100.00;101107.16;5018034;28;20052;-75
2023/09/17 03:40:35;;;;;;;36.83;25.05;;;;;;;15.76;100.00;101109.03;4995761;28;20160;-75
2023/09/17 03:43:03;;;;;;;32.20;23.45;;;;;;;15.76;100.00;101100.22;5001950;28;20125;-74
2023/09/17 03:45:31;;;;;;;32.38;22.77;;;;;;;15.75;100.00;101102.00;5036520;28;20489;-75
2023/09/17 03:47:58;;;;;;;31.40;23.95;;;;;;;15.73;100.00;101101.19;5001900;28;20056;-75
2023/09/17 03:50:30;;;;;;;34.47;23.42;;;;;;;15.74;100.00;101094.94;5003985;28;20042;-74
2023/09/17 03:53:02;;;;;;;39.40;25.60;;;;;;;15.76;100.00;101100.22;5007229;28;20049;-73
2023/09/17 03:55:29;;;;;;;35.47;24.50;;;;;;;15.75;100.00;101099.34;5007463;28;20461;-74
2023/09/17 03:57:57;;;;;;;36.58;24.95;;;;;;;15.75;100.00;101098.50;4992497;28;20061;-74
2023/09/17 04:00:27;;;;;;;41.97;27.30;;;;;;;15.77;100.00;101104.59;5005865;28;20502;-74
2023/09/17 04:02:55;;;;;;;39.17;27.83;;;;;;;15.78;100.00;101104.50;5003152;28;20054;-74
2023/09/17 04:05:24;;;;;;;39.60;27.17;;;;;;;15.79;100.00;101095.59;5022677;28;20042;-74
2023/09/17 04:07:51;;;;;;;35.92;25.70;;;;;;;15.83;100.00;101094.50;5023318;28;20046;-73
2023/09/17 04:10:19;;;;;;;36.85;25.98;;;;;;;15.84;100.00;101090.94;5009064;28;20046;-74
2023/09/17 04:12:47;;;;;;;35.03;24.88;;;;;;;15.81;100.00;101099.06;5009487;28;20042;-74
2023/09/17 04:15:17;;;;;;;36.65;25.60;;;;;;;15.90;100.00;101097.75;5010884;28;20144;-75
2023/09/17 04:17:47;;;;;;;47.63;29.58;;;;;;;15.95;100.00;101095.75;5007314;28;20498;-74
2023/09/17 04:20:18;;;;;;;40.08;26.90;;;;;;;16.00;100.00;101098.19;5007336;28;20034;-75
2023/09/17 04:22:48;;;;;;;45.50;30.52;;;;;;;16.03;100.00;101087.38;5040666;28;20053;-74
2023/09/17 04:25:19;;;;;;;41.90;27.83;;;;;;;16.08;100.00;101090.69;5007390;28;20132;-73
2023/09/17 04:27:49;;;;;;;35.20;24.98;;;;;;;16.07;100.00;101088.13;5040476;28;20050;-74
2023/09/17 04:30:19;;;;;;;45.35;29.05;;;;;;;16.08;100.00;101074.72;5006448;28;20050;-73
2023/09/17 04:32:49;;;;;;;41.80;27.63;;;;;;;16.08;100.00;101081.84;5038773;28;20065;-73
2023/09/17 04:35:17;;;;;;;38.00;25.83;;;;;;;16.14;100.00;101071.75;4993835;28;20473;-74
2023/09/17 04:37:49;;;;;;;36.22;24.27;;;;;;;16.21;100.00;101074.13;4988725;28;20050;-75
2023/09/17 04:40:24;;;;;;;40.28;27.08;;;;;;;16.16;100.00;101077.03;5022716;28;20054;-76
2023/09/17 04:42:52;;;;;;;59.75;30.50;;;;;;;16.16;100.00;101077.03;5006327;28;20114;-75
2023/09/17 04:45:38;;;;;;;59.25;32.88;;;;;;;16.20;100.00;101081.22;5003714;28;20045;-76
2023/09/17 04:48:24;;;;;;;35.92;26.27;;;;;;;16.23;100.00;101074.88;5004200;28;20087;-74
2023/09/17 04:50:54;;;;;;;41.20;25.90;;;;;;;16.27;100.00;101074.69;5003172;28;20046;-78
2023/09/17 04:53:24;;;;;;;37.65;25.20;;;;;;;16.35;100.00;101066.28;5001846;28;20042;-77
2023/09/17 04:55:51;;;;;;;41.80;27.67;;;;;;;16.35;100.00;101071.59;5005948;28;20042;-77
2023/09/17 04:58:23;;;;;;;45.00;30.02;;;;;;;16.36;100.00;101086.63;4988853;28;20047;-76
2023/09/17 05:00:54;;;;;;;48.60;31.27;;;;;;;16.38;100.00;101075.94;5003389;28;20494;-77
2023/09/17 05:03:22;;;;;;;50.30;30.35;;;;;;;16.40;100.00;101084.69;5004120;28;20056;-78
2023/09/17 05:05:49;;;;;;;45.05;29.52;;;;;;;16.44;100.00;101076.47;5014835;28;20041;-77
2023/09/17 05:08:18;;;;;;;32.83;24.42;;;;;;;16.49;100.00;101078.03;5004792;28;20042;-78
2023/09/17 05:10:46;;;;;;;40.83;26.52;;;;;;;16.54;100.00;101076.88;5002768;28;20042;-77
2023/09/17 05:13:13;;;;;;;37.17;25.90;;;;;;;16.58;100.00;101072.22;5003997;28;20057;-77
2023/09/17 05:15:41;;;;;;;42.28;28.80;;;;;;;16.58;100.00;101072.22;5005420;28;20052;-79
2023/09/17 05:18:11;;;;;;;36.65;26.67;;;;;;;16.61;100.00;101077.41;5006124;28;20169;-77
2023/09/17 05:20:47;;;;;;;37.00;25.05;;;;;;;16.63;100.00;101067.56;5006800;28;20038;-77
2023/09/17 05:23:16;;;;;;;37.85;26.30;;;;;;;16.66;100.00;101072.69;5005713;28;20806;-77
2023/09/17 05:25:44;;;;;;;40.72;27.65;;;;;;;16.68;100.00;101077.97;5005223;28;20514;-77
2023/09/17 05:28:14;;;;;;;34.53;25.15;;;;;;;16.68;100.00;101081.47;4988527;28;20120;-78
2023/09/17 05:30:42;;;;;;;30.25;21.20;;;;;;;16.70;100.00;101079.59;5036504;28;20438;-77
2023/09/17 05:33:09;;;;;;;32.95;22.98;;;;;;;16.72;100.00;101080.38;5004967;28;20200;-78
2023/09/17 05:35:37;;;;;;;28.35;20.38;;;;;;;16.74;100.00;101088.28;4985876;28;20100;-77
2023/09/17 05:38:05;;;;;;;32.17;23.95;;;;;;;16.77;100.00;101088.97;5005772;28;20097;-77
2023/09/17 05:40:32;;;;;;;33.20;25.13;;;;;;;16.81;100.00;101091.47;5007230;28;20049;-78
2023/09/17 05:43:00;;;;;;;35.70;24.55;;;;;;;16.80;100.00;101090.59;4989024;28;20320;-78
2023/09/17 05:45:27;;;;;;;35.58;25.40;;;;;;;16.84;100.00;101084.19;5003481;28;20129;-78
2023/09/17 05:47:56;;;;;;;38.95;25.92;;;;;;;16.81;100.00;101086.16;5004895;28;20077;-78
2023/09/17 05:50:23;;;;;;;45.33;30.05;;;;;;;16.83;100.00;101092.25;5005053;28;20045;-76
2023/09/17 05:52:51;;;;;;;42.50;28.40;;;;;;;16.83;100.00;101093.09;4993147;28;20414;-78
2023/09/17 05:55:18;;;;;;;37.83;26.95;;;;;;;16.85;100.00;101095.69;5003666;28;20046;-77
2023/09/17 05:57:46;;;;;;;45.78;31.70;;;;;;;16.88;100.00;101090.19;4997164;28;20425;-77
2023/09/17 06:00:14;;;;;;;39.55;27.60;;;;;;;16.92;100.00;101091.78;5005019;28;20643;-78
2023/09/17 06:02:41;;;;;;;53.80;33.13;;;;;;;16.96;100.00;101096.00;5003289;28;20132;-78
2023/09/17 06:05:14;;;;;;;44.90;26.70;;;;;;;16.98;100.00;101098.59;4999242;28;20513;-79
2023/09/17 06:07:48;;;;;;;42.72;28.13;;;;;;;17.02;100.00;101089.50;4998654;28;20069;-78
2023/09/17 06:10:24;;;;;;;50.15;30.33;;;;;;;17.04;100.00;101091.13;4999458;28;20038;-76
2023/09/17 06:12:51;;;;;;;52.42;31.00;;;;;;;17.06;100.00;101093.72;5002585;28;20042;-79
2023/09/17 06:15:19;;;;;;;46.78;30.45;;;;;;;17.06;100.00;101093.72;4983652;28;20623;-77
2023/09/17 06:17:47;;;;;;;57.28;31.80;;;;;;;17.08;100.00;101091.84;5002427;28;20514;-77
2023/09/17 06:20:15;;;;;;;56.35;31.27;;;;;;;17.08;100.00;101092.69;5005787;28;20033;-77
2023/09/17 06:22:43;;;;;;;40.90;27.17;;;;;;;17.10;100.00;101089.94;5005717;28;20050;-80
2023/09/17 06:25:10;;;;;;;46.83;30.88;;;;;;;17.15;100.00;101093.22;5004356;28;20129;-77
2023/09/17 06:27:39;;;;;;;45.30;28.75;;;;;;;17.17;100.00;101086.03;4999932;28;20029;-81
2023/09/17 06:30:07;;;;;;;45.40;30.50;;;;;;;17.21;100.00;101092.03;4985843;28;20050;-79
2023/09/17 06:32:36;;;;;;;52.50;34.05;;;;;;;17.22;100.00;101089.28;5005125;28;20482;-80
2023/09/17 06:35:05;;;;;;;39.60;28.77;;;;;;;17.23;100.00;101087.50;5007112;28;20057;-79
2023/09/17 06:37:33;;;;;;;49.17;33.53;;;;;;;17.26;100.00;101089.97;4989627;28;20030;-76
2023/09/17 06:40:03;;;;;;;51.13;32.45;;;;;;;17.25;100.00;101095.38;5001984;28;20748;-76
2023/09/17 06:42:32;;;;;;;49.28;32.35;;;;;;;17.23;100.00;101092.81;4994041;28;20128;-75
2023/09/17 06:45:00;;;;;;;37.50;27.08;;;;;;;17.25;100.00;101096.22;5009836;28;20046;-76
2023/09/17 06:47:28;;;;;;;46.38;33.03;;;;;;;17.28;100.00;101087.25;4997697;28;20037;-76
2023/09/17 06:49:56;;;;;;;53.55;33.85;;;;;;;17.29;100.00;101092.47;5002420;28;20496;-75
2023/09/17 06:52:27;;;;;;;54.22;35.97;;;;;;;17.30;100.00;101096.88;5036412;28;20494;-76
2023/09/17 06:54:55;;;;;;;46.22;32.78;;;;;;;17.31;100.00;101100.38;5023980;28;20517;-75
2023/09/17 06:57:23;;;;;;;49.28;34.65;;;;;;;17.31;100.00;101097.72;4991553;28;20042;-75
2023/09/17 06:59:51;;;;;;;44.80;29.35;;;;;;;17.31;100.00;101095.03;5005746;28;20057;-76
2023/09/17 07:02:18;;;;;;;52.25;34.20;;;;;;;17.29;100.00;101092.47;5004300;28;20045;-75
2023/09/17 07:04:47;;;;;;;46.30;31.27;;;;;;;17.32;100.00;101097.66;5005794;28;20046;-76
2023/09/17 07:07:15;;;;;;;55.85;36.53;;;;;;;17.33;100.00;101091.38;5000271;28;20077;-75
2023/09/17 07:09:43;;;;;;;30.25;25.20;;;;;;;17.32;100.00;101094.09;5007992;28;20045;-75
2023/09/17 07:12:12;;;;;;;49.83;34.05;;;;;;;17.39;100.00;101093.69;5001716;28;20050;-75
2023/09/17 07:14:41;;;;;;;54.05;34.85;;;;;;;17.41;100.00;101085.59;4997108;28;20057;-75
2023/09/17 07:17:09;;;;;;;44.92;30.77;;;;;;;17.43;100.00;101093.53;5007620;28;20128;-75
2023/09/17 07:19:38;;;;;;;54.22;33.30;;;;;;;17.43;100.00;101097.03;5004369;28;20457;-75
2023/09/17 07:22:11;;;;;;;53.35;33.42;;;;;;;17.47;100.00;101097.72;4989264;28;20042;-75
2023/09/17 07:24:39;;;;;;;48.80;34.72;;;;;;;17.49;100.00;101090.50;4992117;28;20628;-76
2023/09/17 07:27:06;;;;;;;42.65;30.13;;;;;;;17.51;100.00;101078.81;5015582;28;20129;-75
2023/09/17 07:29:33;;;;;;;52.58;34.85;;;;;;;17.54;100.00;101085.81;4997469;28;20741;-72
2023/09/17 07:32:01;;;;;;;57.20;37.70;;;;;;;17.53;100.00;101086.75;5004371;28;20108;-72
2023/09/17 07:34:29;;;;;;;61.28;37.78;;;;;;;17.52;100.00;101082.34;5005093;28;20038;-72
2023/09/17 07:36:56;;;;;;;65.45;39.42;;;;;;;17.56;100.00;101093.69;5000849;28;20070;-72
2023/09/17 07:39:23;;;;;;;62.53;37.38;;;;;;;17.62;100.00;101090.69;5007674;28;20068;-72
2023/09/17 07:41:50;;;;;;;63.00;39.75;;;;;;;17.68;100.00;101090.34;5001990;28;20212;-72
2023/09/17 07:44:17;;;;;;;58.95;39.22;;;;;;;17.67;100.00;101097.47;4999106;28;20599;-72
2023/09/17 07:46:45;;;;;;;65.03;39.17;;;;;;;17.68;100.00;101085.88;4993420;28;20038;-72
2023/09/17 07:49:12;;;;;;;74.75;41.58;;;;;;;17.71;100.00;101084.81;4999797;28;20053;-72
2023/09/17 07:51:39;;;;;;;67.70;41.85;;;;;;;17.72;100.00;101085.72;4993163;28;20566;-73
2023/09/17 07:54:06;;;;;;;64.78;38.20;;;;;;;17.72;100.00;101083.03;5001938;28;20046;-73
2023/09/17 07:56:33;;;;;;;66.88;40.70;;;;;;;17.73;100.00;101079.44;4992481;28;20049;-72
2023/09/17 07:59:00;;;;;;;55.47;37.22;;;;;;;17.74;100.00;101083.81;5000850;28;20040;-72
2023/09/17 08:01:28;;;;;;;61.72;38.47;;;;;;;17.72;100.00;101088.38;5004133;28;20046;-72
2023/09/17 08:03:56;;;;;;;57.83;36.50;;;;;;;17.70;100.00;101096.47;5005134;28;20041;-72
2023/09/17 08:06:25;;;;;;;55.47;36.35;;;;;;;17.70;100.00;101093.81;4997438;28;20507;-71
2023/09/17 08:08:52;;;;;;;59.85;38.15;;;;;;;17.70;100.00;101088.47;5001858;28;20657;-71
2023/09/17 08:11:19;;;;;;;60.17;37.38;;;;;;;17.74;100.00;101089.16;5001626;28;20038;-71
2023/09/17 08:13:47;;;;;;;54.33;36.08;;;;;;;17.76;100.00;101093.44;5004512;28;20530;-71
2023/09/17 08:16:15;;;;;;;61.72;36.53;;;;;;;17.74;100.00;101094.47;5005771;28;20050;-72
2023/09/17 08:18:42;;;;;;;63.63;37.30;;;;;;;17.75;100.00;101096.22;5004171;28;20498;-74
2023/09/17 08:21:09;;;;;;;49.67;33.95;;;;;;;17.77;100.00;101095.16;5003478;28;20062;-74
2023/09/17 08:23:36;;;;;;;55.42;37.58;;;;;;;17.75;100.00;101104.19;5017818;28;20034;-73
2023/09/17 08:26:05;;;;;;;55.65;34.28;;;;;;;17.73;100.00;101103.44;5002400;28;20045;-74
2023/09/17 08:28:32;;;;;;;63.63;39.60;;;;;;;17.77;100.00;101099.63;5006267;28;20069;-74
2023/09/17 08:30:59;;;;;;;50.05;33.55;;;;;;;17.84;100.00;101099.19;5003358;28;20053;-74
2023/09/17 08:33:26;;;;;;;64.68;38.50;;;;;;;17.89;100.00;101098.09;5005456;28;20138;-74
2023/09/17 08:35:53;;;;;;;63.67;39.72;;;;;;;17.93;100.00;101104.94;5002255;28;20049;-73
2023/09/17 08:38:20;;;;;;;56.00;39.00;;;;;;;17.97;100.00;101106.53;5018991;28;20038;-73
2023/09/17 08:40:49;;;;;;;58.30;38.75;;;;;;;17.98;100.00;101103.75;5004500;28;20476;-74
2023/09/17 08:43:17;;;;;;;58.35;37.20;;;;;;;17.99;100.00;101099.31;5002700;28;20475;-74
2023/09/17 08:45:45;;;;;;;61.78;40.65;;;;;;;18.00;100.00;101104.53;5001430;28;20069;-74
2023/09/17 08:48:13;;;;;;;60.55;39.13;;;;;;;18.06;100.00;101110.50;5006219;28;20041;-74
2023/09/17 08:50:42;;;;;;;65.28;42.40;;;;;;;18.07;100.00;101105.06;5011662;28;20042;-73
2023/09/17 08:53:13;;;;;;;40.75;28.95;;;;;;;18.12;100.00;101108.31;5003631;28;20345;-73
2023/09/17 08:55:40;;;;;;;39.60;28.88;;;;;;;18.19;100.00;101102.63;5007727;28;20046;-73
2023/09/17 08:58:17;;;;;;;42.95;31.73;;;;;;;18.27;100.00;101103.88;5037738;28;20108;-73
2023/09/17 09:00:51;;;;;;;45.78;33.33;;;;;;;18.36;100.00;101104.31;4999285;28;20129;-74
2023/09/17 09:03:24;;;;;;;40.13;30.33;;;;;;;18.44;100.00;101110.06;5007811;28;20046;-73
2023/09/17 09:05:55;;;;;;;40.22;29.15;;;;;;;18.54;100.00;101107.69;5007425;28;20164;-73
2023/09/17 09:08:24;;;;;;;49.72;34.20;;;;;;;18.63;100.00;101112.47;5004963;28;20053;-75
2023/09/17 09:10:54;;;;;;;40.85;28.65;;;;;;;18.71;100.00;101115.56;5005958;28;20049;-73
2023/09/17 09:13:22;;;;;;;41.38;30.33;;;;;;;18.77;100.00;101119.66;5036977;28;20107;-73
2023/09/17 09:15:50;;;;;;;39.72;29.15;;;;;;;18.83;100.00;101126.41;5028035;28;20057;-73
2023/09/17 09:18:17;;;;;;;45.03;31.40;;;;;;;18.87;100.00;101128.81;5005142;28;20133;-74
2023/09/17 09:20:44;;;;;;;40.90;30.48;;;;;;;18.95;100.00;101128.38;5005236;28;20041;-74
2023/09/17 09:23:11;;;;;;;37.80;28.63;;;;;;;19.00;100.00;101123.63;4998272;28;20658;-74
2023/09/17 09:25:40;;;;;;;33.63;26.65;;;;;;;19.06;100.00;101122.41;5010258;28;20048;-74
2023/09/17 09:28:07;;;;;;;46.47;32.55;;;;;;;19.09;100.00;101122.19;5010387;28;20042;-74
2023/09/17 09:30:36;;;;;;;36.00;26.15;;;;;;;19.14;100.00;101127.25;4997183;28;20056;-74
2023/09/17 09:33:03;;;;;;;50.95;32.83;;;;;;;19.17;100.00;101127.94;5009538;28;20054;-73
2023/09/17 09:35:33;;;;;;;51.60;33.45;;;;;;;19.22;100.00;101116.97;4998360;28;20168;-74
2023/09/17 09:38:03;;;;;;;52.58;35.33;;;;;;;19.28;100.00;101111.22;4999315;28;20588;-73
2023/09/17 09:40:34;;;;;;;43.72;31.17;;;;;;;19.32;100.00;101125.25;4997466;28;20050;-72
2023/09/17 09:43:02;;;;;;;39.80;29.70;;;;;;;19.32;100.00;101118.09;5002841;28;20036;-73
2023/09/17 09:45:29;;;;;;;44.83;31.73;;;;;;;19.33;100.00;101118.94;4993542;28;20046;-73
2023/09/17 09:47:57;;;;;;;41.45;30.05;;;;;;;19.32;100.00;101118.09;4995344;28;20132;-73
2023/09/17 09:50:31;;;;;;;39.10;28.25;;;;;;;19.33;100.00;101117.13;4994553;28;20046;-74
2023/09/17 09:53:00;;;;;;;42.75;31.13;;;;;;;19.34;100.00;101113.50;4996859;28;20037;-79
2023/09/17 09:55:28;;;;;;;47.13;31.92;;;;;;;19.37;100.00;101113.31;5000065;28;20045;-79
2023/09/17 09:57:56;;;;;;;43.22;32.17;;;;;;;19.39;100.00;101113.19;5012727;28;20649;-79
2023/09/17 10:00:26;;;;;;;38.38;29.15;;;;;;;19.43;100.00;101119.25;5012194;28;20080;-79
2023/09/17 10:02:55;;;;;;;42.60;30.08;;;;;;;19.46;100.00;101111.88;5003044;28;20061;-78
2023/09/17 10:05:42;;;;;;;51.85;33.63;;;;;;;19.59;100.00;101111.06;5003746;28;20073;-77
2023/09/17 10:08:12;;;;;;;51.53;34.45;;;;;;;19.80;100.00;101108.84;5004433;28;20134;-79
2023/09/17 10:10:41;;;;;;;47.47;33.00;;;;;;;20.05;100.00;101104.56;5007402;28;20038;-79
2023/09/17 10:13:12;;;;;;;37.03;27.35;;;;;;;20.26;100.00;101105.81;4988781;28;20041;-79
2023/09/17 10:15:43;;;;;;;39.15;29.30;;;;;;;20.53;100.00;101104.06;4994992;28;20049;-78
2023/09/17 10:18:14;;;;;;;36.83;27.13;;;;;;;20.74;100.00;101099.09;4996934;28;20709;-77
2023/09/17 10:20:44;;;;;;;34.45;26.70;;;;;;;20.92;100.00;101102.28;4995606;28;20053;-77
2023/09/17 10:23:15;;;;;;;36.72;28.08;;;;;;;21.04;100.00;101097.91;4997532;28;20121;-73
2023/09/17 10:25:45;;;;;;;39.55;29.27;;;;;;;21.11;100.00;101085.78;4991997;28;20042;-73
2023/09/17 10:28:15;;;;;;;32.35;25.80;;;;;;;21.19;100.00;101095.97;4992125;28;20042;-72
2023/09/17 10:30:44;;;;;;;35.55;27.52;;;;;;;21.19;100.00;101091.44;5000598;28;20046;-73
2023/09/17 10:33:15;;;;;;;32.13;25.27;;;;;;;21.22;100.00;101090.34;4997390;28;20506;-73
2023/09/17 10:35:44;;;;;;;31.05;25.65;;;;;;;21.22;100.00;101090.34;5030339;28;20042;-73
2023/09/17 10:38:24;;;;;;;32.65;25.48;;;;;;;21.27;100.00;101085.53;5001096;28;20041;-74
2023/09/17 10:40:55;;;;;;;31.80;25.38;;;;;;;21.31;100.00;101095.09;4998076;28;20041;-74
2023/09/17 10:43:26;;;;;;;32.10;25.60;;;;;;;21.34;100.00;101078.75;5001585;28;20244;-74
2023/09/17 10:45:57;;;;;;;33.55;25.23;;;;;;;21.42;100.00;101076.38;5004235;28;20771;-74
2023/09/17 10:48:28;;;;;;;30.42;24.17;;;;;;;21.51;100.00;101074.84;5011700;28;20710;-74
2023/09/17 10:50:55;;;;;;;27.52;22.02;;;;;;;21.51;100.00;101080.22;4997552;28;20054;-74
2023/09/17 10:53:22;;;;;;;32.78;24.33;;;;;;;21.46;100.00;101082.41;5005686;28;20034;-74
2023/09/17 10:56:03;;;;;;;26.05;20.52;;;;;;;21.35;100.00;101083.16;5006300;28;20199;-74
2023/09/17 10:58:39;;;;;;;25.80;21.98;;;;;;;21.23;100.00;101089.41;5004298;28;20506;-74
2023/09/17 11:01:09;;;;;;;28.17;23.67;;;;;;;21.10;100.00;101082.25;5001388;28;20037;-74
2023/09/17 11:03:41;;;;;;;32.20;25.13;;;;;;;21.01;100.00;101090.91;5005048;28;20038;-74
2023/09/17 11:06:23;;;;;;;31.65;24.75;;;;;;;20.96;100.00;101093.06;5004499;28;20057;-74
2023/09/17 11:08:55;;;;;;;33.47;26.75;;;;;;;21.05;100.00;101094.25;5019195;28;20177;-74
2023/09/17 11:11:30;;;;;;;34.95;25.95;;;;;;;21.30;100.00;101090.69;4993549;28;20042;-74